sensor_id;sensor_type;location;lat;lon;timestamp;P1;durP1;ratioP1;P2;durP2;ratioP2
70010;SDS011;59543;37.950;-122.338;2023-08-08T00:00:38;17.05;;;5.57;;
70010;SDS011;59543;37.950;-122.338;2023-08-08T00:03:04;16.13;;;5.78;;
70010;SDS011;59543;37.950;-122.338;2023-08-08T00:05:31;18.35;;;6.00;;
70010;SDS011;59543;37.950;-122.338;2023-08-08T00:07:57;16.92;;;5.57;;
70010;SDS011;59543;37.950;-122.338;2023-08-08T00:10:23;24.73;;;5.93;;
70010;SDS011;59543;37.950;-122.338;2023-08-08T00:12:50;14.98;;;5.30;;
70010;SDS011;59543;37.950;-122.338;2023-08-08T00:15:16;19.33;;;6.05;;
70010;SDS011;59543;37.950;-122.338;2023-08-08T00:17:43;24.98;;;6.47;;
70010;SDS011;59543;37.950;-122.338;2023-08-08T00:20:10;14.23;;;5.68;;
70010;SDS011;59543;37.950;-122.338;2023-08-08T00:22:36;20.27;;;5.85;;
70010;SDS011;59543;37.950;-122.338;2023-08-08T00:25:03;21.30;;;5.35;;
70010;SDS011;59543;37.950;-122.338;2023-08-08T00:27:29;21.70;;;5.13;;
70010;SDS011;59543;37.950;-122.338;2023-08-08T00:29:55;19.33;;;6.05;;
70010;SDS011;59543;37.950;-122.338;2023-08-08T00:32:22;20.10;;;5.95;;
70010;SDS011;59543;37.950;-122.338;2023-08-08T00:34:48;19.85;;;5.70;;
70010;SDS011;59543;37.950;-122.338;2023-08-08T00:37:14;20.45;;;6.18;;
70010;SDS011;59543;37.950;-122.338;2023-08-08T00:39:40;23.23;;;6.95;;
70010;SDS011;59543;37.950;-122.338;2023-08-08T00:42:14;22.30;;;6.00;;
70010;SDS011;59543;37.950;-122.338;2023-08-08T00:44:40;16.38;;;5.63;;
70010;SDS011;59543;37.950;-122.338;2023-08-08T00:47:09;22.98;;;7.10;;
70010;SDS011;59543;37.950;-122.338;2023-08-08T00:49:37;18.38;;;5.93;;
70010;SDS011;59543;37.950;-122.338;2023-08-08T00:52:04;19.85;;;6.10;;
70010;SDS011;59543;37.950;-122.338;2023-08-08T00:54:32;23.23;;;6.97;;
70010;SDS011;59543;37.950;-122.338;2023-08-08T00:56:58;21.55;;;6.10;;
70010;SDS011;59543;37.950;-122.338;2023-08-08T00:59:24;20.77;;;5.90;;
70010;SDS011;59543;37.950;-122.338;2023-08-08T01:01:52;24.02;;;6.45;;
70010;SDS011;59543;37.950;-122.338;2023-08-08T01:04:38;18.15;;;6.00;;
70010;SDS011;59543;37.950;-122.338;2023-08-08T01:07:16;16.98;;;5.70;;
70010;SDS011;59543;37.950;-122.338;2023-08-08T01:12:20;15.23;;;4.95;;
70010;SDS011;59543;37.950;-122.338;2023-08-08T01:14:47;15.43;;;5.00;;
70010;SDS011;59543;37.950;-122.338;2023-08-08T01:17:14;20.48;;;5.47;;
70010;SDS011;59543;37.950;-122.338;2023-08-08T01:19:41;19.15;;;5.43;;
70010;SDS011;59543;37.950;-122.338;2023-08-08T01:22:14;11.43;;;4.38;;
70010;SDS011;59543;37.950;-122.338;2023-08-08T01:24:52;15.05;;;4.90;;
70010;SDS011;59543;37.950;-122.338;2023-08-08T01:27:19;17.75;;;5.78;;
70010;SDS011;59543;37.950;-122.338;2023-08-08T01:29:46;12.52;;;4.60;;
70010;SDS011;59543;37.950;-122.338;2023-08-08T01:32:12;14.48;;;5.38;;
70010;SDS011;59543;37.950;-122.338;2023-08-08T01:34:38;15.02;;;5.13;;
70010;SDS011;59543;37.950;-122.338;2023-08-08T01:37:07;15.57;;;5.20;;
70010;SDS011;59543;37.950;-122.338;2023-08-08T01:39:56;16.98;;;4.93;;
70010;SDS011;59543;37.950;-122.338;2023-08-08T01:42:25;16.80;;;4.85;;
70010;SDS011;59543;37.950;-122.338;2023-08-08T01:44:53;14.57;;;4.40;;
70010;SDS011;59543;37.950;-122.338;2023-08-08T01:47:20;14.10;;;4.53;;
70010;SDS011;59543;37.950;-122.338;2023-08-08T01:49:46;14.50;;;4.85;;
70010;SDS011;59543;37.950;-122.338;2023-08-08T01:52:13;19.60;;;5.43;;
70010;SDS011;59543;37.950;-122.338;2023-08-08T01:54:39;15.70;;;4.80;;
70010;SDS011;59543;37.950;-122.338;2023-08-08T01:57:07;17.33;;;5.00;;
70010;SDS011;59543;37.950;-122.338;2023-08-08T01:59:34;14.70;;;4.53;;
70010;SDS011;59543;37.950;-122.338;2023-08-08T02:02:00;19.63;;;5.68;;
70010;SDS011;59543;37.950;-122.338;2023-08-08T02:04:26;14.00;;;4.70;;
70010;SDS011;59543;37.950;-122.338;2023-08-08T02:06:53;17.08;;;5.05;;
70010;SDS011;59543;37.950;-122.338;2023-08-08T02:09:19;18.17;;;4.95;;
70010;SDS011;59543;37.950;-122.338;2023-08-08T02:11:45;20.25;;;5.60;;
70010;SDS011;59543;37.950;-122.338;2023-08-08T02:14:12;17.13;;;4.65;;
70010;SDS011;59543;37.950;-122.338;2023-08-08T02:16:38;17.33;;;5.00;;
70010;SDS011;59543;37.950;-122.338;2023-08-08T02:19:05;20.92;;;5.43;;
70010;SDS011;59543;37.950;-122.338;2023-08-08T02:21:31;16.17;;;4.70;;
70010;SDS011;59543;37.950;-122.338;2023-08-08T02:23:57;16.40;;;4.75;;
70010;SDS011;59543;37.950;-122.338;2023-08-08T02:26:24;16.88;;;5.13;;
70010;SDS011;59543;37.950;-122.338;2023-08-08T02:28:51;13.25;;;4.68;;
70010;SDS011;59543;37.950;-122.338;2023-08-08T02:31:17;11.82;;;4.40;;
70010;SDS011;59543;37.950;-122.338;2023-08-08T02:33:49;15.65;;;5.05;;
70010;SDS011;59543;37.950;-122.338;2023-08-08T02:36:16;15.00;;;4.47;;
70010;SDS011;59543;37.950;-122.338;2023-08-08T02:38:44;15.75;;;4.53;;
70010;SDS011;59543;37.950;-122.338;2023-08-08T02:41:10;16.55;;;4.82;;
70010;SDS011;59543;37.950;-122.338;2023-08-08T02:43:37;15.52;;;4.15;;
70010;SDS011;59543;37.950;-122.338;2023-08-08T02:46:03;17.45;;;4.65;;
70010;SDS011;59543;37.950;-122.338;2023-08-08T02:48:29;19.65;;;4.88;;
70010;SDS011;59543;37.950;-122.338;2023-08-08T02:50:56;14.70;;;4.53;;
70010;SDS011;59543;37.950;-122.338;2023-08-08T02:53:23;14.75;;;4.85;;
70010;SDS011;59543;37.950;-122.338;2023-08-08T02:55:49;21.15;;;5.68;;
70010;SDS011;59543;37.950;-122.338;2023-08-08T02:58:15;14.90;;;4.50;;
70010;SDS011;59543;37.950;-122.338;2023-08-08T03:00:42;20.83;;;4.55;;
70010;SDS011;59543;37.950;-122.338;2023-08-08T03:22:05;19.13;;;7.03;;
70010;SDS011;59543;37.950;-122.338;2023-08-08T03:24:31;24.58;;;11.93;;
70010;SDS011;59543;37.950;-122.338;2023-08-08T03:26:58;24.92;;;11.27;;
70010;SDS011;59543;37.950;-122.338;2023-08-08T03:29:24;23.05;;;7.35;;
70010;SDS011;59543;37.950;-122.338;2023-08-08T03:31:50;13.85;;;4.40;;
70010;SDS011;59543;37.950;-122.338;2023-08-08T03:34:16;14.43;;;4.15;;
70010;SDS011;59543;37.950;-122.338;2023-08-08T03:36:43;14.23;;;4.22;;
70010;SDS011;59543;37.950;-122.338;2023-08-08T03:39:09;11.77;;;4.30;;
70010;SDS011;59543;37.950;-122.338;2023-08-08T03:41:36;11.80;;;4.10;;
70010;SDS011;59543;37.950;-122.338;2023-08-08T03:44:02;10.70;;;4.03;;
70010;SDS011;59543;37.950;-122.338;2023-08-08T03:46:28;16.30;;;4.50;;
70010;SDS011;59543;37.950;-122.338;2023-08-08T03:48:55;14.98;;;4.60;;
70010;SDS011;59543;37.950;-122.338;2023-08-08T03:51:21;14.95;;;4.03;;
70010;SDS011;59543;37.950;-122.338;2023-08-08T03:53:47;12.55;;;4.25;;
70010;SDS011;59543;37.950;-122.338;2023-08-08T03:56:14;13.00;;;4.65;;
70010;SDS011;59543;37.950;-122.338;2023-08-08T03:58:40;15.60;;;4.38;;
70010;SDS011;59543;37.950;-122.338;2023-08-08T04:01:06;16.70;;;4.10;;
70010;SDS011;59543;37.950;-122.338;2023-08-08T04:03:33;16.40;;;4.50;;
70010;SDS011;59543;37.950;-122.338;2023-08-08T04:05:59;18.92;;;4.88;;
70010;SDS011;59543;37.950;-122.338;2023-08-08T04:08:25;14.95;;;4.55;;
70010;SDS011;59543;37.950;-122.338;2023-08-08T04:10:52;11.20;;;3.85;;
70010;SDS011;59543;37.950;-122.338;2023-08-08T04:13:18;16.98;;;4.72;;
70010;SDS011;59543;37.950;-122.338;2023-08-08T04:15:45;15.40;;;4.45;;
70010;SDS011;59543;37.950;-122.338;2023-08-08T04:18:11;18.55;;;4.88;;
70010;SDS011;59543;37.950;-122.338;2023-08-08T04:20:37;12.15;;;4.07;;
70010;SDS011;59543;37.950;-122.338;2023-08-08T04:23:04;20.35;;;5.28;;
70010;SDS011;59543;37.950;-122.338;2023-08-08T04:25:30;17.55;;;4.78;;
70010;SDS011;59543;37.950;-122.338;2023-08-08T04:27:56;17.17;;;5.00;;
70010;SDS011;59543;37.950;-122.338;2023-08-08T04:30:22;17.55;;;4.50;;
70010;SDS011;59543;37.950;-122.338;2023-08-08T04:32:49;16.33;;;4.63;;
70010;SDS011;59543;37.950;-122.338;2023-08-08T04:35:15;12.73;;;4.20;;
70010;SDS011;59543;37.950;-122.338;2023-08-08T04:37:41;15.65;;;4.50;;
70010;SDS011;59543;37.950;-122.338;2023-08-08T04:40:08;14.07;;;4.32;;
70010;SDS011;59543;37.950;-122.338;2023-08-08T04:42:35;11.30;;;4.03;;
70010;SDS011;59543;37.950;-122.338;2023-08-08T04:45:01;12.48;;;3.85;;
70010;SDS011;59543;37.950;-122.338;2023-08-08T04:47:28;14.60;;;3.28;;
70010;SDS011;59543;37.950;-122.338;2023-08-08T04:49:54;9.82;;;3.13;;
70010;SDS011;59543;37.950;-122.338;2023-08-08T04:52:20;13.25;;;3.70;;
70010;SDS011;59543;37.950;-122.338;2023-08-08T04:54:46;11.20;;;4.13;;
70010;SDS011;59543;37.950;-122.338;2023-08-08T04:57:13;10.75;;;3.50;;
70010;SDS011;59543;37.950;-122.338;2023-08-08T04:59:39;11.70;;;3.85;;
70010;SDS011;59543;37.950;-122.338;2023-08-08T05:02:05;11.95;;;3.72;;
70010;SDS011;59543;37.950;-122.338;2023-08-08T05:04:32;13.70;;;4.32;;
70010;SDS011;59543;37.950;-122.338;2023-08-08T05:06:58;17.20;;;3.97;;
70010;SDS011;59543;37.950;-122.338;2023-08-08T05:09:24;17.58;;;4.38;;
70010;SDS011;59543;37.950;-122.338;2023-08-08T05:11:53;20.70;;;4.90;;
70010;SDS011;59543;37.950;-122.338;2023-08-08T05:14:20;14.02;;;4.07;;
70010;SDS011;59543;37.950;-122.338;2023-08-08T05:16:46;13.68;;;4.03;;
70010;SDS011;59543;37.950;-122.338;2023-08-08T05:19:12;14.15;;;4.03;;
70010;SDS011;59543;37.950;-122.338;2023-08-08T05:21:38;12.60;;;3.60;;
70010;SDS011;59543;37.950;-122.338;2023-08-08T05:24:05;14.75;;;4.43;;
70010;SDS011;59543;37.950;-122.338;2023-08-08T05:26:31;13.05;;;4.15;;
70010;SDS011;59543;37.950;-122.338;2023-08-08T05:28:57;14.63;;;4.13;;
70010;SDS011;59543;37.950;-122.338;2023-08-08T05:31:23;12.73;;;3.88;;
70010;SDS011;59543;37.950;-122.338;2023-08-08T05:33:50;14.30;;;4.70;;
70010;SDS011;59543;37.950;-122.338;2023-08-08T05:36:16;10.73;;;3.33;;
70010;SDS011;59543;37.950;-122.338;2023-08-08T05:38:42;10.32;;;3.75;;
70010;SDS011;59543;37.950;-122.338;2023-08-08T05:41:08;14.73;;;3.70;;
70010;SDS011;59543;37.950;-122.338;2023-08-08T05:43:35;12.95;;;4.07;;
70010;SDS011;59543;37.950;-122.338;2023-08-08T05:46:04;14.55;;;3.88;;
70010;SDS011;59543;37.950;-122.338;2023-08-08T05:48:30;9.45;;;3.30;;
70010;SDS011;59543;37.950;-122.338;2023-08-08T05:50:57;12.10;;;4.03;;
70010;SDS011;59543;37.950;-122.338;2023-08-08T05:53:24;9.65;;;3.33;;
70010;SDS011;59543;37.950;-122.338;2023-08-08T05:55:50;9.23;;;3.13;;
70010;SDS011;59543;37.950;-122.338;2023-08-08T05:58:16;10.45;;;3.15;;
70010;SDS011;59543;37.950;-122.338;2023-08-08T06:00:43;9.05;;;3.05;;
70010;SDS011;59543;37.950;-122.338;2023-08-08T06:03:09;10.20;;;3.53;;
70010;SDS011;59543;37.950;-122.338;2023-08-08T06:05:35;10.93;;;3.83;;
70010;SDS011;59543;37.950;-122.338;2023-08-08T06:08:01;10.05;;;3.35;;
70010;SDS011;59543;37.950;-122.338;2023-08-08T06:10:31;15.95;;;4.18;;
70010;SDS011;59543;37.950;-122.338;2023-08-08T06:12:58;11.65;;;3.60;;
70010;SDS011;59543;37.950;-122.338;2023-08-08T06:15:24;8.60;;;3.28;;
70010;SDS011;59543;37.950;-122.338;2023-08-08T06:17:51;11.82;;;4.22;;
70010;SDS011;59543;37.950;-122.338;2023-08-08T06:20:17;12.02;;;3.45;;
70010;SDS011;59543;37.950;-122.338;2023-08-08T06:22:43;11.43;;;3.83;;
70010;SDS011;59543;37.950;-122.338;2023-08-08T06:25:09;11.23;;;3.60;;
70010;SDS011;59543;37.950;-122.338;2023-08-08T06:27:36;9.35;;;3.83;;
70010;SDS011;59543;37.950;-122.338;2023-08-08T06:30:02;10.38;;;3.47;;
70010;SDS011;59543;37.950;-122.338;2023-08-08T06:32:30;12.70;;;3.72;;
70010;SDS011;59543;37.950;-122.338;2023-08-08T06:34:56;8.82;;;3.17;;
70010;SDS011;59543;37.950;-122.338;2023-08-08T06:37:23;12.80;;;3.70;;
70010;SDS011;59543;37.950;-122.338;2023-08-08T06:39:49;13.65;;;4.45;;
70010;SDS011;59543;37.950;-122.338;2023-08-08T06:42:15;11.13;;;3.90;;
70010;SDS011;59543;37.950;-122.338;2023-08-08T06:44:42;14.32;;;3.72;;
70010;SDS011;59543;37.950;-122.338;2023-08-08T06:47:10;12.85;;;3.80;;
70010;SDS011;59543;37.950;-122.338;2023-08-08T06:49:37;11.95;;;3.63;;
70010;SDS011;59543;37.950;-122.338;2023-08-08T06:52:04;12.48;;;4.15;;
70010;SDS011;59543;37.950;-122.338;2023-08-08T06:54:31;11.25;;;3.67;;
70010;SDS011;59543;37.950;-122.338;2023-08-08T06:56:57;15.45;;;4.45;;
70010;SDS011;59543;37.950;-122.338;2023-08-08T06:59:24;14.10;;;4.45;;
70010;SDS011;59543;37.950;-122.338;2023-08-08T07:01:51;13.10;;;3.72;;
70010;SDS011;59543;37.950;-122.338;2023-08-08T07:04:19;12.07;;;3.97;;
70010;SDS011;59543;37.950;-122.338;2023-08-08T07:06:45;10.35;;;3.33;;
70010;SDS011;59543;37.950;-122.338;2023-08-08T07:09:12;11.00;;;3.35;;
70010;SDS011;59543;37.950;-122.338;2023-08-08T07:11:39;10.95;;;3.58;;
70010;SDS011;59543;37.950;-122.338;2023-08-08T07:14:06;12.40;;;4.03;;
70010;SDS011;59543;37.950;-122.338;2023-08-08T07:16:33;10.10;;;3.47;;
70010;SDS011;59543;37.950;-122.338;2023-08-08T07:18:59;9.98;;;3.15;;
70010;SDS011;59543;37.950;-122.338;2023-08-08T07:21:26;8.85;;;3.38;;
70010;SDS011;59543;37.950;-122.338;2023-08-08T07:23:52;8.10;;;3.25;;
70010;SDS011;59543;37.950;-122.338;2023-08-08T07:26:18;8.32;;;3.33;;
70010;SDS011;59543;37.950;-122.338;2023-08-08T07:28:48;9.15;;;3.15;;
70010;SDS011;59543;37.950;-122.338;2023-08-08T07:31:14;12.15;;;3.10;;
70010;SDS011;59543;37.950;-122.338;2023-08-08T07:33:40;8.00;;;2.90;;
70010;SDS011;59543;37.950;-122.338;2023-08-08T07:36:07;6.43;;;2.60;;
70010;SDS011;59543;37.950;-122.338;2023-08-08T07:38:33;7.40;;;2.65;;
70010;SDS011;59543;37.950;-122.338;2023-08-08T07:40:59;12.27;;;3.15;;
70010;SDS011;59543;37.950;-122.338;2023-08-08T07:43:25;10.57;;;3.60;;
70010;SDS011;59543;37.950;-122.338;2023-08-08T07:45:53;10.43;;;3.38;;
70010;SDS011;59543;37.950;-122.338;2023-08-08T07:48:19;11.00;;;2.83;;
70010;SDS011;59543;37.950;-122.338;2023-08-08T07:50:45;13.13;;;3.50;;
70010;SDS011;59543;37.950;-122.338;2023-08-08T07:53:11;12.15;;;3.65;;
70010;SDS011;59543;37.950;-122.338;2023-08-08T07:55:38;12.68;;;3.90;;
70010;SDS011;59543;37.950;-122.338;2023-08-08T07:58:04;10.50;;;3.13;;
70010;SDS011;59543;37.950;-122.338;2023-08-08T08:00:30;11.18;;;3.03;;
70010;SDS011;59543;37.950;-122.338;2023-08-08T08:02:56;8.25;;;2.83;;
70010;SDS011;59543;37.950;-122.338;2023-08-08T08:05:23;5.32;;;2.13;;
70010;SDS011;59543;37.950;-122.338;2023-08-08T08:07:49;6.93;;;2.65;;
70010;SDS011;59543;37.950;-122.338;2023-08-08T08:10:15;6.53;;;2.67;;
70010;SDS011;59543;37.950;-122.338;2023-08-08T08:12:41;8.15;;;2.75;;
70010;SDS011;59543;37.950;-122.338;2023-08-08T08:15:08;9.60;;;3.03;;
70010;SDS011;59543;37.950;-122.338;2023-08-08T08:17:35;7.28;;;2.95;;
70010;SDS011;59543;37.950;-122.338;2023-08-08T08:20:01;7.55;;;3.10;;
70010;SDS011;59543;37.950;-122.338;2023-08-08T08:22:36;6.70;;;2.38;;
70010;SDS011;59543;37.950;-122.338;2023-08-08T08:25:04;9.82;;;2.70;;
70010;SDS011;59543;37.950;-122.338;2023-08-08T08:27:37;8.77;;;3.35;;
70010;SDS011;59543;37.950;-122.338;2023-08-08T08:30:04;8.70;;;2.97;;
70010;SDS011;59543;37.950;-122.338;2023-08-08T08:32:33;9.85;;;2.83;;
70010;SDS011;59543;37.950;-122.338;2023-08-08T08:35:00;7.45;;;2.50;;
70010;SDS011;59543;37.950;-122.338;2023-08-08T08:37:29;11.73;;;3.25;;
70010;SDS011;59543;37.950;-122.338;2023-08-08T08:39:58;9.70;;;3.20;;
70010;SDS011;59543;37.950;-122.338;2023-08-08T08:42:26;7.97;;;2.67;;
70010;SDS011;59543;37.950;-122.338;2023-08-08T08:44:55;8.23;;;2.92;;
70010;SDS011;59543;37.950;-122.338;2023-08-08T08:47:24;8.10;;;2.90;;
70010;SDS011;59543;37.950;-122.338;2023-08-08T08:49:53;6.30;;;2.60;;
70010;SDS011;59543;37.950;-122.338;2023-08-08T08:52:21;7.03;;;2.25;;
70010;SDS011;59543;37.950;-122.338;2023-08-08T08:54:48;8.27;;;2.95;;
70010;SDS011;59543;37.950;-122.338;2023-08-08T08:57:16;8.63;;;2.88;;
70010;SDS011;59543;37.950;-122.338;2023-08-08T08:59:42;6.18;;;2.40;;
70010;SDS011;59543;37.950;-122.338;2023-08-08T09:02:09;7.75;;;2.38;;
70010;SDS011;59543;37.950;-122.338;2023-08-08T09:04:36;7.85;;;2.65;;
70010;SDS011;59543;37.950;-122.338;2023-08-08T09:07:03;7.60;;;2.80;;
70010;SDS011;59543;37.950;-122.338;2023-08-08T09:09:32;8.30;;;2.47;;
70010;SDS011;59543;37.950;-122.338;2023-08-08T09:11:58;10.80;;;3.33;;
70010;SDS011;59543;37.950;-122.338;2023-08-08T09:14:25;8.13;;;2.50;;
70010;SDS011;59543;37.950;-122.338;2023-08-08T09:16:54;8.68;;;2.75;;
70010;SDS011;59543;37.950;-122.338;2023-08-08T09:19:22;7.38;;;2.50;;
70010;SDS011;59543;37.950;-122.338;2023-08-08T09:21:50;9.77;;;3.10;;
70010;SDS011;59543;37.950;-122.338;2023-08-08T09:24:17;10.18;;;2.53;;
70010;SDS011;59543;37.950;-122.338;2023-08-08T09:26:44;9.02;;;2.75;;
70010;SDS011;59543;37.950;-122.338;2023-08-08T09:29:14;6.75;;;2.80;;
70010;SDS011;59543;37.950;-122.338;2023-08-08T09:31:40;8.50;;;2.80;;
70010;SDS011;59543;37.950;-122.338;2023-08-08T09:34:07;8.63;;;2.30;;
70010;SDS011;59543;37.950;-122.338;2023-08-08T09:36:33;6.60;;;2.70;;
70010;SDS011;59543;37.950;-122.338;2023-08-08T09:39:00;7.82;;;2.60;;
70010;SDS011;59543;37.950;-122.338;2023-08-08T09:41:27;6.22;;;2.60;;
70010;SDS011;59543;37.950;-122.338;2023-08-08T09:43:53;7.20;;;2.72;;
70010;SDS011;59543;37.950;-122.338;2023-08-08T09:46:20;11.23;;;3.70;;
70010;SDS011;59543;37.950;-122.338;2023-08-08T09:48:47;11.77;;;2.90;;
70010;SDS011;59543;37.950;-122.338;2023-08-08T09:51:14;10.20;;;2.60;;
70010;SDS011;59543;37.950;-122.338;2023-08-08T09:53:41;6.93;;;2.35;;
70010;SDS011;59543;37.950;-122.338;2023-08-08T09:56:08;9.95;;;2.58;;
70010;SDS011;59543;37.950;-122.338;2023-08-08T09:58:34;8.45;;;2.78;;
70010;SDS011;59543;37.950;-122.338;2023-08-08T10:01:00;9.13;;;2.63;;
70010;SDS011;59543;37.950;-122.338;2023-08-08T10:03:30;8.80;;;3.00;;
70010;SDS011;59543;37.950;-122.338;2023-08-08T10:05:57;6.72;;;2.72;;
70010;SDS011;59543;37.950;-122.338;2023-08-08T10:08:24;6.30;;;2.35;;
70010;SDS011;59543;37.950;-122.338;2023-08-08T10:10:50;6.93;;;2.60;;
70010;SDS011;59543;37.950;-122.338;2023-08-08T10:13:23;5.55;;;2.10;;
70010;SDS011;59543;37.950;-122.338;2023-08-08T10:15:51;4.57;;;1.70;;
70010;SDS011;59543;37.950;-122.338;2023-08-08T10:18:22;8.30;;;2.53;;
70010;SDS011;59543;37.950;-122.338;2023-08-08T10:20:49;8.35;;;2.80;;
70010;SDS011;59543;37.950;-122.338;2023-08-08T10:23:19;8.45;;;2.67;;
70010;SDS011;59543;37.950;-122.338;2023-08-08T10:25:50;10.60;;;2.80;;
70010;SDS011;59543;37.950;-122.338;2023-08-08T10:28:20;4.82;;;2.10;;
70010;SDS011;59543;37.950;-122.338;2023-08-08T10:30:58;5.70;;;2.00;;
70010;SDS011;59543;37.950;-122.338;2023-08-08T10:33:27;5.28;;;2.25;;
70010;SDS011;59543;37.950;-122.338;2023-08-08T10:36:05;7.15;;;2.15;;
70010;SDS011;59543;37.950;-122.338;2023-08-08T10:38:39;6.43;;;2.35;;
70010;SDS011;59543;37.950;-122.338;2023-08-08T10:41:14;5.18;;;2.08;;
70010;SDS011;59543;37.950;-122.338;2023-08-08T10:43:49;7.65;;;2.55;;
70010;SDS011;59543;37.950;-122.338;2023-08-08T10:46:29;4.47;;;1.73;;
70010;SDS011;59543;37.950;-122.338;2023-08-08T10:48:58;5.70;;;1.95;;
70010;SDS011;59543;37.950;-122.338;2023-08-08T10:51:38;5.18;;;1.90;;
70010;SDS011;59543;37.950;-122.338;2023-08-08T10:54:18;4.78;;;1.52;;
70010;SDS011;59543;37.950;-122.338;2023-08-08T10:56:51;4.25;;;1.38;;
70010;SDS011;59543;37.950;-122.338;2023-08-08T10:59:27;5.63;;;1.90;;
70010;SDS011;59543;37.950;-122.338;2023-08-08T11:02:02;5.93;;;1.92;;
70010;SDS011;59543;37.950;-122.338;2023-08-08T11:04:29;5.93;;;1.88;;
70010;SDS011;59543;37.950;-122.338;2023-08-08T11:06:57;6.70;;;1.60;;
70010;SDS011;59543;37.950;-122.338;2023-08-08T11:09:24;6.30;;;1.70;;
70010;SDS011;59543;37.950;-122.338;2023-08-08T11:11:51;4.10;;;1.50;;
70010;SDS011;59543;37.950;-122.338;2023-08-08T11:14:21;4.40;;;1.58;;
70010;SDS011;59543;37.950;-122.338;2023-08-08T11:16:49;5.53;;;1.90;;
70010;SDS011;59543;37.950;-122.338;2023-08-08T11:19:16;5.10;;;1.83;;
70010;SDS011;59543;37.950;-122.338;2023-08-08T11:21:45;4.75;;;1.75;;
70010;SDS011;59543;37.950;-122.338;2023-08-08T11:24:12;9.15;;;2.10;;
70010;SDS011;59543;37.950;-122.338;2023-08-08T11:26:39;5.90;;;1.92;;
70010;SDS011;59543;37.950;-122.338;2023-08-08T11:29:07;4.55;;;1.40;;
70010;SDS011;59543;37.950;-122.338;2023-08-08T11:31:34;6.40;;;1.48;;
70010;SDS011;59543;37.950;-122.338;2023-08-08T11:34:00;5.82;;;1.45;;
70010;SDS011;59543;37.950;-122.338;2023-08-08T11:36:30;4.90;;;1.40;;
70010;SDS011;59543;37.950;-122.338;2023-08-08T11:38:59;3.58;;;1.25;;
70010;SDS011;59543;37.950;-122.338;2023-08-08T11:41:36;7.03;;;1.88;;
70010;SDS011;59543;37.950;-122.338;2023-08-08T11:44:03;5.53;;;1.40;;
70010;SDS011;59543;37.950;-122.338;2023-08-08T11:46:30;4.32;;;1.50;;
70010;SDS011;59543;37.950;-122.338;2023-08-08T11:49:04;3.45;;;1.10;;
70010;SDS011;59543;37.950;-122.338;2023-08-08T11:51:32;5.22;;;1.52;;
70010;SDS011;59543;37.950;-122.338;2023-08-08T11:54:00;2.63;;;1.02;;
70010;SDS011;59543;37.950;-122.338;2023-08-08T11:56:29;5.32;;;1.58;;
70010;SDS011;59543;37.950;-122.338;2023-08-08T11:58:58;4.45;;;1.20;;
70010;SDS011;59543;37.950;-122.338;2023-08-08T12:01:26;3.58;;;1.35;;
70010;SDS011;59543;37.950;-122.338;2023-08-08T12:03:53;3.50;;;1.10;;
70010;SDS011;59543;37.950;-122.338;2023-08-08T12:06:22;5.53;;;1.20;;
70010;SDS011;59543;37.950;-122.338;2023-08-08T12:08:53;4.82;;;1.40;;
70010;SDS011;59543;37.950;-122.338;2023-08-08T12:11:20;4.82;;;1.27;;
70010;SDS011;59543;37.950;-122.338;2023-08-08T12:13:46;3.50;;;0.98;;
70010;SDS011;59543;37.950;-122.338;2023-08-08T12:16:13;4.25;;;1.30;;
70010;SDS011;59543;37.950;-122.338;2023-08-08T12:18:40;3.33;;;1.00;;
70010;SDS011;59543;37.950;-122.338;2023-08-08T12:21:07;17.52;;;1.58;;
70010;SDS011;59543;37.950;-122.338;2023-08-08T12:23:34;2.42;;;0.80;;
70010;SDS011;59543;37.950;-122.338;2023-08-08T12:26:02;7.55;;;1.10;;
70010;SDS011;59543;37.950;-122.338;2023-08-08T12:28:33;6.10;;;1.20;;
70010;SDS011;59543;37.950;-122.338;2023-08-08T12:31:00;2.33;;;0.63;;
70010;SDS011;59543;37.950;-122.338;2023-08-08T12:33:26;3.63;;;0.95;;
70010;SDS011;59543;37.950;-122.338;2023-08-08T12:35:53;5.25;;;0.80;;
70010;SDS011;59543;37.950;-122.338;2023-08-08T12:38:19;3.33;;;0.82;;
70010;SDS011;59543;37.950;-122.338;2023-08-08T12:40:45;2.50;;;0.70;;
70010;SDS011;59543;37.950;-122.338;2023-08-08T12:43:12;3.83;;;0.70;;
70010;SDS011;59543;37.950;-122.338;2023-08-08T12:45:39;1.73;;;0.60;;
70010;SDS011;59543;37.950;-122.338;2023-08-08T12:48:05;1.35;;;0.40;;
70010;SDS011;59543;37.950;-122.338;2023-08-08T12:50:32;2.97;;;0.90;;
70010;SDS011;59543;37.950;-122.338;2023-08-08T12:52:58;2.50;;;0.80;;
70010;SDS011;59543;37.950;-122.338;2023-08-08T12:55:24;3.40;;;0.82;;
70010;SDS011;59543;37.950;-122.338;2023-08-08T12:57:51;1.90;;;0.52;;
70010;SDS011;59543;37.950;-122.338;2023-08-08T13:00:17;2.00;;;0.57;;
70010;SDS011;59543;37.950;-122.338;2023-08-08T13:02:43;3.15;;;0.65;;
70010;SDS011;59543;37.950;-122.338;2023-08-08T13:05:09;2.65;;;0.60;;
70010;SDS011;59543;37.950;-122.338;2023-08-08T13:07:36;3.47;;;0.85;;
70010;SDS011;59543;37.950;-122.338;2023-08-08T13:10:02;2.25;;;0.60;;
70010;SDS011;59543;37.950;-122.338;2023-08-08T13:12:29;2.55;;;0.60;;
70010;SDS011;59543;37.950;-122.338;2023-08-08T13:14:55;3.00;;;0.75;;
70010;SDS011;59543;37.950;-122.338;2023-08-08T13:17:21;4.47;;;0.65;;
70010;SDS011;59543;37.950;-122.338;2023-08-08T13:19:47;2.22;;;0.52;;
70010;SDS011;59543;37.950;-122.338;2023-08-08T13:22:14;2.55;;;0.60;;
70010;SDS011;59543;37.950;-122.338;2023-08-08T13:24:40;2.00;;;0.50;;
70010;SDS011;59543;37.950;-122.338;2023-08-08T13:27:06;2.03;;;0.60;;
70010;SDS011;59543;37.950;-122.338;2023-08-08T13:29:32;1.50;;;0.50;;
70010;SDS011;59543;37.950;-122.338;2023-08-08T13:31:58;3.35;;;0.60;;
70010;SDS011;59543;37.950;-122.338;2023-08-08T13:34:25;1.10;;;0.38;;
70010;SDS011;59543;37.950;-122.338;2023-08-08T13:36:51;1.65;;;0.75;;
70010;SDS011;59543;37.950;-122.338;2023-08-08T13:39:17;2.78;;;0.82;;
70010;SDS011;59543;37.950;-122.338;2023-08-08T13:41:44;2.92;;;0.63;;
70010;SDS011;59543;37.950;-122.338;2023-08-08T13:44:10;1.70;;;0.70;;
70010;SDS011;59543;37.950;-122.338;2023-08-08T13:46:36;5.13;;;0.93;;
70010;SDS011;59543;37.950;-122.338;2023-08-08T13:49:02;1.77;;;0.60;;
70010;SDS011;59543;37.950;-122.338;2023-08-08T13:51:29;2.22;;;0.43;;
70010;SDS011;59543;37.950;-122.338;2023-08-08T13:53:55;1.45;;;0.40;;
70010;SDS011;59543;37.950;-122.338;2023-08-08T13:56:21;1.73;;;0.28;;
70010;SDS011;59543;37.950;-122.338;2023-08-08T13:58:48;1.67;;;0.40;;
70010;SDS011;59543;37.950;-122.338;2023-08-08T14:01:14;1.60;;;0.50;;
70010;SDS011;59543;37.950;-122.338;2023-08-08T14:03:41;1.25;;;0.30;;
70010;SDS011;59543;37.950;-122.338;2023-08-08T14:06:07;2.58;;;0.40;;
70010;SDS011;59543;37.950;-122.338;2023-08-08T14:08:34;1.45;;;0.68;;
70010;SDS011;59543;37.950;-122.338;2023-08-08T14:11:00;3.20;;;0.32;;
70010;SDS011;59543;37.950;-122.338;2023-08-08T14:13:26;1.75;;;0.68;;
70010;SDS011;59543;37.950;-122.338;2023-08-08T14:15:52;1.38;;;0.32;;
70010;SDS011;59543;37.950;-122.338;2023-08-08T14:18:19;1.15;;;0.30;;
70010;SDS011;59543;37.950;-122.338;2023-08-08T14:20:45;1.40;;;0.40;;
70010;SDS011;59543;37.950;-122.338;2023-08-08T14:23:11;0.80;;;0.25;;